Time;durP1;ratioP1;P1;durP2;ratioP2;P2;SDS_P1;SDS_P2;PMS_P1;PMS_P2;Temp;Humidity;BMP_temperature;BMP_pressure;BME280_temperature;BME280_humidity;BME280_pressure;Samples;Min_cycle;Max_cycle;Signal;HPM_P1;HPM_P2
2023/04/06 00:01:52;;;;;;;;;;;4.70;99.90;;;;;;4997566;28;19979;-61
2023/04/06 00:04:17;;;;;;;;;;;4.70;99.90;;;;;;4997209;28;20461;-63
2023/04/06 00:06:43;;;;;;;;;;;4.70;99.90;;;;;;4997133;28;19979;-62
2023/04/06 00:09:08;;;;;;;;;;;4.50;99.90;;;;;;4997218;28;20002;-61
2023/04/06 00:11:34;;;;;;;;;;;4.40;99.90;;;;;;4997012;28;19979;-63
2023/04/06 00:14:00;;;;;;;;;;;4.40;99.90;;;;;;4997210;28;20357;-62
2023/04/06 00:16:26;;;;;;;;;;;4.30;99.90;;;;;;4997274;28;19986;-63
2023/04/06 00:18:51;;;;;;;;;;;4.30;99.90;;;;;;4997117;28;19979;-62
2023/04/06 00:21:17;;;;;;;;;;;4.30;99.90;;;;;;4996820;28;20018;-61
2023/04/06 00:23:43;;;;;;;;;;;4.30;99.90;;;;;;4997060;28;20389;-62
2023/04/06 00:26:10;;;;;;;;;;;4.20;99.90;;;;;;4997058;28;19979;-62
2023/04/06 00:28:36;;;;;;;;;;;4.20;99.90;;;;;;4996811;28;20003;-63
2023/04/06 00:31:02;;;;;;;;;;;4.20;99.90;;;;;;4997178;28;20400;-64
2023/04/06 00:33:27;;;;;;;;;;;4.20;99.90;;;;;;4996940;28;19979;-62
2023/04/06 00:35:53;;;;;;;;;;;4.30;99.90;;;;;;4996471;28;20446;-62
2023/04/06 00:38:18;;;;;;;;;;;4.40;99.90;;;;;;4996858;28;20442;-62
2023/04/06 00:40:44;;;;;;;;;;;4.40;99.90;;;;;;4996797;28;19978;-62
2023/04/06 00:43:11;;;;;;;;;;;4.30;99.90;;;;;;4995603;28;20433;-63
2023/04/06 00:45:40;;;;;;;;;;;4.30;99.90;;;;;;4996752;28;19979;-63
2023/04/06 00:48:06;;;;;;;;;;;4.40;99.90;;;;;;4996499;28;20445;-61
2023/04/06 00:50:32;;;;;;;;;;;4.50;99.90;;;;;;4996559;28;19983;-62
2023/04/06 00:53:01;;;;;;;;;;;4.40;99.90;;;;;;4996503;28;20509;-63
2023/04/06 00:55:27;;;;;;;;;;;4.50;99.90;;;;;;4996751;28;19982;-63
2023/04/06 00:57:53;;;;;;;;;;;4.50;99.90;;;;;;4996766;28;20385;-64
2023/04/06 01:00:19;;;;;;;;;;;4.50;99.90;;;;;;4996327;28;20041;-63
2023/04/06 01:02:46;;;;;;;;;;;4.60;99.90;;;;;;4996357;28;19983;-61
2023/04/06 01:05:11;;;;;;;;;;;4.60;99.90;;;;;;4996241;28;20009;-63
2023/04/06 01:07:37;;;;;;;;;;;4.60;99.90;;;;;;4996159;28;19987;-63
2023/04/06 01:10:03;;;;;;;;;;;4.60;99.90;;;;;;4996265;28;20069;-61
2023/04/06 01:12:28;;;;;;;;;;;4.60;99.90;;;;;;4996098;28;20019;-63
2023/04/06 01:14:54;;;;;;;;;;;4.60;99.90;;;;;;4996268;28;20073;-62
2023/04/06 01:17:20;;;;;;;;;;;4.70;99.90;;;;;;4996031;28;20002;-61
2023/04/06 01:19:45;;;;;;;;;;;4.70;99.90;;;;;;4995895;28;20050;-62
2023/04/06 01:22:17;;;;;;;;;;;4.70;99.90;;;;;;4995894;28;20499;-63
2023/04/06 01:24:43;;;;;;;;;;;4.60;99.90;;;;;;4995953;28;20033;-63
2023/04/06 01:27:09;;;;;;;;;;;4.60;99.90;;;;;;4995812;28;20002;-62
2023/04/06 01:29:35;;;;;;;;;;;4.50;99.90;;;;;;4995750;28;20003;-64
2023/04/06 01:32:00;;;;;;;;;;;4.40;99.90;;;;;;4995791;28;20493;-62
2023/04/06 01:34:26;;;;;;;;;;;4.50;99.90;;;;;;4995563;28;20417;-64
2023/04/06 01:36:51;;;;;;;;;;;4.40;99.90;;;;;;4995602;28;20418;-63
2023/04/06 01:39:17;;;;;;;;;;;4.50;99.90;;;;;;4995580;28;20360;-62
2023/04/06 01:41:43;;;;;;;;;;;4.50;99.90;;;;;;4995617;28;20449;-64
2023/04/06 01:44:09;;;;;;;;;;;4.60;99.90;;;;;;4995521;28;20061;-63
2023/04/06 01:46:34;;;;;;;;;;;4.50;99.90;;;;;;4995487;28;19990;-60
2023/04/06 01:49:00;;;;;;;;;;;4.50;99.90;;;;;;4995205;28;20093;-63
2023/04/06 01:51:26;;;;;;;;;;;4.40;99.90;;;;;;4995460;28;19979;-62
2023/04/06 01:53:52;;;;;;;;;;;4.50;99.90;;;;;;4995015;28;19986;-61
2023/04/06 01:56:17;;;;;;;;;;;4.50;99.90;;;;;;4995329;28;19979;-61
2023/04/06 01:58:43;;;;;;;;;;;4.50;99.90;;;;;;4995319;28;19979;-63
2023/04/06 02:01:09;;;;;;;;;;;4.50;99.90;;;;;;4995091;28;19979;-61
2023/04/06 02:03:34;;;;;;;;;;;4.50;99.90;;;;;;4995030;28;20025;-62
2023/04/06 02:06:00;;;;;;;;;;;4.40;99.90;;;;;;4995442;28;19986;-61
2023/04/06 02:08:26;;;;;;;;;;;4.40;99.90;;;;;;4994945;28;20042;-61
2023/04/06 02:10:52;;;;;;;;;;;4.30;99.90;;;;;;4995019;28;20314;-62
2023/04/06 02:13:17;;;;;;;;;;;4.30;99.90;;;;;;4994906;28;20481;-62
2023/04/06 02:15:43;;;;;;;;;;;4.30;99.90;;;;;;4994924;28;19979;-62
2023/04/06 02:18:09;;;;;;;;;;;4.30;99.90;;;;;;4994692;28;20391;-62
2023/04/06 02:20:35;;;;;;;;;;;4.30;99.90;;;;;;4994984;28;19979;-61
2023/04/06 02:23:01;;;;;;;;;;;4.30;99.90;;;;;;4994853;28;19979;-61
2023/04/06 02:25:26;;;;;;;;;;;4.30;99.90;;;;;;4994716;28;20484;-63
2023/04/06 02:27:52;;;;;;;;;;;4.30;99.90;;;;;;4994984;28;20007;-62
2023/04/06 02:30:17;;;;;;;;;;;4.20;99.90;;;;;;4994799;28;20047;-63
2023/04/06 02:32:43;;;;;;;;;;;4.20;99.90;;;;;;4994446;28;19986;-63
2023/04/06 02:35:08;;;;;;;;;;;4.10;99.90;;;;;;4994769;28;19986;-63
2023/04/06 02:37:34;;;;;;;;;;;4.10;99.90;;;;;;4994675;28;20500;-62
2023/04/06 02:39:59;;;;;;;;;;;4.10;99.90;;;;;;4994474;28;20504;-63
2023/04/06 02:42:25;;;;;;;;;;;4.20;99.90;;;;;;4994554;28;20389;-63
2023/04/06 02:44:50;;;;;;;;;;;4.30;99.90;;;;;;4994515;28;19985;-63
2023/04/06 02:47:16;;;;;;;;;;;4.30;99.90;;;;;;4994315;28;19985;-64
2023/04/06 02:49:41;;;;;;;;;;;4.40;99.90;;;;;;4994349;28;20064;-64
2023/04/06 02:52:07;;;;;;;;;;;4.40;99.90;;;;;;4994395;28;19986;-61
2023/04/06 02:54:33;;;;;;;;;;;4.30;99.90;;;;;;4994415;28;20058;-61
2023/04/06 02:56:58;;;;;;;;;;;4.20;99.90;;;;;;4994345;28;19979;-61
2023/04/06 02:59:24;;;;;;;;;;;4.20;99.90;;;;;;4994458;28;20029;-61
2023/04/06 03:01:50;;;;;;;;;;;4.10;99.90;;;;;;4994142;28;20342;-64
2023/04/06 03:04:15;;;;;;;;;;;4.20;99.90;;;;;;4994117;28;20002;-63
2023/04/06 03:06:41;;;;;;;;;;;4.20;99.90;;;;;;4997648;28;20006;-61
2023/04/06 03:09:06;;;;;;;;;;;4.20;99.90;;;;;;5000816;28;20013;-63
2023/04/06 03:11:32;;;;;;;;;;;4.20;99.90;;;;;;5000544;28;20441;-62
2023/04/06 03:13:59;;;;;;;;;;;4.30;99.90;;;;;;5000870;28;19982;-61
2023/04/06 03:16:24;;;;;;;;;;;4.30;99.90;;;;;;5000665;28;19978;-64
2023/04/06 03:18:50;;;;;;;;;;;4.30;99.90;;;;;;5000693;28;20093;-63
2023/04/06 03:21:15;;;;;;;;;;;4.30;99.90;;;;;;5000608;28;19978;-62
2023/04/06 03:23:41;;;;;;;;;;;4.30;99.90;;;;;;5000638;28;20394;-63
2023/04/06 03:26:07;;;;;;;;;;;4.30;99.90;;;;;;5000674;28;19989;-63
2023/04/06 03:28:32;;;;;;;;;;;4.20;99.90;;;;;;5000497;28;20002;-60
2023/04/06 03:30:58;;;;;;;;;;;4.10;99.90;;;;;;5000434;28;20060;-62
2023/04/06 03:33:26;;;;;;;;;;;4.00;99.90;;;;;;5000630;28;20432;-62
2023/04/06 03:35:52;;;;;;;;;;;3.90;99.90;;;;;;5000478;28;20062;-62
2023/04/06 03:38:18;;;;;;;;;;;3.80;99.90;;;;;;5000555;28;20018;-63
2023/04/06 03:40:43;;;;;;;;;;;3.80;99.90;;;;;;5000437;28;20002;-63
2023/04/06 03:43:09;;;;;;;;;;;3.90;99.90;;;;;;5000412;28;20029;-64
2023/04/06 03:45:34;;;;;;;;;;;3.90;99.90;;;;;;5000503;28;20029;-63
2023/04/06 03:48:00;;;;;;;;;;;4.00;99.90;;;;;;5000394;28;20007;-64
2023/04/06 03:50:25;;;;;;;;;;;4.10;99.90;;;;;;5000372;28;20017;-62
2023/04/06 03:52:51;;;;;;;;;;;4.10;99.90;;;;;;5000562;28;19994;-61
2023/04/06 03:55:17;;;;;;;;;;;4.00;99.90;;;;;;5000379;28;19986;-63
2023/04/06 03:57:42;;;;;;;;;;;4.00;99.90;;;;;;5000405;28;19979;-62
2023/04/06 04:00:08;;;;;;;;;;;4.10;99.90;;;;;;5000241;28;19982;-63
2023/04/06 04:02:34;;;;;;;;;;;4.10;99.90;;;;;;5000336;28;20026;-63
2023/04/06 04:05:00;;;;;;;;;;;4.10;99.90;;;;;;5000489;28;20469;-62
2023/04/06 04:07:25;;;;;;;;;;;4.00;99.90;;;;;;5000165;28;20456;-61
2023/04/06 04:09:51;;;;;;;;;;;4.00;99.90;;;;;;5000151;28;20109;-62
2023/04/06 04:12:16;;;;;;;;;;;4.00;99.90;;;;;;5000192;28;20022;-62
2023/04/06 04:14:42;;;;;;;;;;;3.90;99.90;;;;;;5000302;28;19982;-63
2023/04/06 04:17:08;;;;;;;;;;;3.90;99.90;;;;;;5000109;28;20488;-62
2023/04/06 04:19:33;;;;;;;;;;;4.00;99.90;;;;;;4997157;28;20492;-65
2023/04/06 04:21:59;;;;;;;;;;;3.90;99.90;;;;;;4997076;28;20345;-62
2023/04/06 04:24:25;;;;;;;;;;;3.90;99.90;;;;;;4996930;28;20073;-63
2023/04/06 04:26:50;;;;;;;;;;;4.00;99.90;;;;;;4996892;28;19982;-62
2023/04/06 04:29:16;;;;;;;;;;;4.00;99.90;;;;;;4996678;28;20003;-63
2023/04/06 04:31:42;;;;;;;;;;;4.00;99.90;;;;;;4996788;28;19985;-62
2023/04/06 04:34:07;;;;;;;;;;;4.00;99.90;;;;;;4996974;28;20090;-64
2023/04/06 04:36:33;;;;;;;;;;;4.00;99.90;;;;;;4996739;28;19990;-64
2023/04/06 04:39:00;;;;;;;;;;;4.10;99.90;;;;;;4996665;28;20026;-61
2023/04/06 04:41:26;;;;;;;;;;;4.10;99.90;;;;;;4997052;28;20376;-61
2023/04/06 04:43:52;;;;;;;;;;;4.10;99.90;;;;;;4996419;28;19983;-63
2023/04/06 04:46:17;;;;;;;;;;;4.10;99.90;;;;;;4996537;28;19983;-62
2023/04/06 04:48:43;;;;;;;;;;;4.00;99.90;;;;;;4996605;28;20002;-64
2023/04/06 04:51:08;;;;;;;;;;;4.00;99.90;;;;;;4996558;28;20110;-61
2023/04/06 04:53:34;;;;;;;;;;;4.00;99.90;;;;;;4996519;28;19989;-62
2023/04/06 04:56:00;;;;;;;;;;;4.00;99.90;;;;;;4996074;28;19982;-62
2023/04/06 04:58:25;;;;;;;;;;;3.90;99.90;;;;;;4996372;28;19993;-63
2023/04/06 05:00:51;;;;;;;;;;;3.80;99.90;;;;;;4996305;28;19979;-63
2023/04/06 05:03:26;;;;;;;;;;;3.80;99.90;;;;;;4996032;28;19987;-62
2023/04/06 05:05:52;;;;;;;;;;;3.90;99.90;;;;;;4996004;28;20006;-62
2023/04/06 05:08:17;;;;;;;;;;;3.90;99.90;;;;;;4994836;28;20006;-64
2023/04/06 05:10:44;;;;;;;;;;;3.90;99.90;;;;;;4995655;28;19989;-60
2023/04/06 05:13:10;;;;;;;;;;;3.90;99.90;;;;;;4995046;28;20018;-64
2023/04/06 05:15:37;;;;;;;;;;;3.90;99.90;;;;;;4996367;28;19982;-62
2023/04/06 05:18:06;;;;;;;;;;;3.90;99.90;;;;;;4995821;28;19986;-62
2023/04/06 05:20:32;;;;;;;;;;;3.90;99.90;;;;;;4994133;28;20064;-62
2023/04/06 05:22:58;;;;;;;;;;;3.90;99.90;;;;;;4994043;28;20410;-64
2023/04/06 05:25:23;;;;;;;;;;;3.90;99.90;;;;;;4995041;28;19983;-64
2023/04/06 05:27:49;;;;;;;;;;;3.90;99.90;;;;;;4995864;28;20065;-63
2023/04/06 05:30:15;;;;;;;;;;;4.00;99.90;;;;;;4995078;28;19979;-62
2023/04/06 05:32:42;;;;;;;;;;;4.10;99.90;;;;;;4995720;28;19982;-61
2023/04/06 05:35:08;;;;;;;;;;;4.20;99.90;;;;;;4995371;28;19982;-63
2023/04/06 05:37:33;;;;;;;;;;;4.40;99.90;;;;;;4995664;28;20356;-62
2023/04/06 05:39:59;;;;;;;;;;;4.50;99.90;;;;;;4995087;28;19979;-62
2023/04/06 05:42:25;;;;;;;;;;;4.60;99.90;;;;;;4995284;28;19978;-64
2023/04/06 05:44:50;;;;;;;;;;;4.70;99.90;;;;;;4995839;28;19982;-63
2023/04/06 05:47:16;;;;;;;;;;;4.90;99.90;;;;;;4995457;28;20472;-65
2023/04/06 05:49:42;;;;;;;;;;;5.00;99.90;;;;;;4995509;28;20032;-64
2023/04/06 05:52:08;;;;;;;;;;;5.20;99.90;;;;;;4995365;28;19983;-62
2023/04/06 05:54:34;;;;;;;;;;;5.30;99.90;;;;;;4995422;28;20357;-64
2023/04/06 05:57:01;;;;;;;;;;;5.40;99.90;;;;;;4995094;28;19979;-64
2023/04/06 05:59:27;;;;;;;;;;;5.50;99.90;;;;;;4995318;28;20409;-62
2023/04/06 06:01:52;;;;;;;;;;;5.70;99.90;;;;;;4994582;28;20018;-63
2023/04/06 06:04:18;;;;;;;;;;;6.10;99.90;;;;;;4988251;28;20085;-64
2023/04/06 06:06:44;;;;;;;;;;;6.60;99.90;;;;;;4985178;28;20441;-65
2023/04/06 06:09:09;;;;;;;;;;;6.90;99.90;;;;;;4984298;28;20443;-62
2023/04/06 06:11:35;;;;;;;;;;;7.30;99.90;;;;;;4982945;28;20002;-64
2023/04/06 06:14:01;;;;;;;;;;;8.00;99.90;;;;;;4980605;28;19997;-64
2023/04/06 06:16:27;;;;;;;;;;;8.40;98.50;;;;;;4985666;28;19987;-66
2023/04/06 06:18:52;;;;;;;;;;;8.20;97.00;;;;;;4986240;28;20365;-61
2023/04/06 06:21:18;;;;;;;;;;;8.20;95.40;;;;;;4997216;28;19986;-63
2023/04/06 06:23:43;;;;;;;;;;;8.50;95.60;;;;;;4999270;28;19983;-62
2023/04/06 06:26:09;;;;;;;;;;;9.60;86.70;;;;;;4998025;28;19987;-64
2023/04/06 06:28:34;;;;;;;;;;;9.50;76.90;;;;;;4993394;28;20058;-61
2023/04/06 06:31:00;;;;;;;;;;;10.30;69.90;;;;;;4998003;28;19983;-60
2023/04/06 06:33:26;;;;;;;;;;;10.70;70.70;;;;;;5001664;28;19982;-61
2023/04/06 06:35:52;;;;;;;;;;;12.10;66.50;;;;;;4999957;28;19983;-62
2023/04/06 06:38:17;;;;;;;;;;;13.00;56.20;;;;;;4998689;28;19983;-64
2023/04/06 06:40:43;;;;;;;;;;;14.20;53.30;;;;;;4995260;28;19978;-63
2023/04/06 06:43:08;;;;;;;;;;;14.90;51.20;;;;;;4996465;28;20065;-63
2023/04/06 06:45:34;;;;;;;;;;;15.10;47.40;;;;;;4999096;28;19991;-63
2023/04/06 06:48:00;;;;;;;;;;;16.10;44.50;;;;;;4995237;28;20061;-63
2023/04/06 06:50:32;;;;;;;;;;;15.30;44.00;;;;;;4996356;28;19986;-63
2023/04/06 06:52:58;;;;;;;;;;;16.20;43.80;;;;;;4995240;28;19987;-61
2023/04/06 06:55:33;;;;;;;;;;;16.00;41.40;;;;;;4999460;28;20502;-63
2023/04/06 06:57:59;;;;;;;;;;;14.90;42.50;;;;;;5000444;28;20444;-66
2023/04/06 07:00:32;;;;;;;;;;;14.70;44.00;;;;;;5002171;28;20057;-62
2023/04/06 07:02:57;;;;;;;;;;;14.80;42.30;;;;;;4997772;28;19986;-63
2023/04/06 07:05:23;;;;;;;;;;;14.60;43.40;;;;;;4997016;28;20008;-63
2023/04/06 07:07:49;;;;;;;;;;;15.10;42.20;;;;;;4995754;28;20033;-62
2023/04/06 07:10:14;;;;;;;;;;;15.00;41.50;;;;;;4980744;28;20528;-63
2023/04/06 07:12:40;;;;;;;;;;;14.80;43.00;;;;;;4989477;28;20069;-62
2023/04/06 07:15:06;;;;;;;;;;;14.30;42.90;;;;;;4989590;28;19979;-64
2023/04/06 07:17:31;;;;;;;;;;;14.00;42.30;;;;;;4990078;28;19978;-64
2023/04/06 07:19:58;;;;;;;;;;;13.50;44.30;;;;;;4990495;28;20078;-64
2023/04/06 07:22:23;;;;;;;;;;;12.90;44.30;;;;;;4991611;28;19978;-62
2023/04/06 07:24:50;;;;;;;;;;;13.20;42.70;;;;;;4991880;28;20018;-63
2023/04/06 07:27:17;;;;;;;;;;;12.80;42.70;;;;;;4992546;28;20346;-66
2023/04/06 07:29:42;;;;;;;;;;;12.40;44.70;;;;;;4992707;28;20002;-62
2023/04/06 07:32:08;;;;;;;;;;;12.10;44.90;;;;;;4992953;28;19986;-62
2023/04/06 07:34:33;;;;;;;;;;;12.30;44.70;;;;;;4993863;28;19986;-62
2023/04/06 07:37:00;;;;;;;;;;;12.30;44.50;;;;;;4993766;28;20017;-61
2023/04/06 07:39:26;;;;;;;;;;;12.00;44.80;;;;;;4993394;28;19986;-64
2023/04/06 07:41:52;;;;;;;;;;;11.80;46.20;;;;;;4993525;28;19983;-65
2023/04/06 07:44:18;;;;;;;;;;;11.60;46.50;;;;;;4987558;28;19986;-64
2023/04/06 07:46:43;;;;;;;;;;;11.70;45.80;;;;;;4992559;28;19978;-65
2023/04/06 07:49:09;;;;;;;;;;;11.80;45.50;;;;;;4985847;28;20006;-62
2023/04/06 07:51:38;;;;;;;;;;;11.90;45.30;;;;;;4984178;28;20319;-65
2023/04/06 07:54:04;;;;;;;;;;;12.70;44.40;;;;;;4994048;28;20022;-61
2023/04/06 07:56:29;;;;;;;;;;;13.50;43.20;;;;;;4994779;28;20018;-61
2023/04/06 07:58:58;;;;;;;;;;;15.10;40.60;;;;;;4992112;28;19986;-61
2023/04/06 08:01:24;;;;;;;;;;;16.40;40.60;;;;;;4993280;28;19979;-62
2023/04/06 08:03:50;;;;;;;;;;;18.20;37.90;;;;;;4973501;28;19979;-63
2023/04/06 08:06:16;;;;;;;;;;;18.60;35.60;;;;;;4971441;28;19987;-63
2023/04/06 08:08:41;;;;;;;;;;;19.30;34.70;;;;;;4974143;28;20006;-62
2023/04/06 08:11:07;;;;;;;;;;;19.90;33.10;;;;;;4975080;28;19983;-61
2023/04/06 08:13:33;;;;;;;;;;;20.80;31.90;;;;;;4981445;28;20417;-61
2023/04/06 08:15:59;;;;;;;;;;;21.10;30.60;;;;;;4984570;28;20342;-61
2023/04/06 08:18:25;;;;;;;;;;;20.40;30.30;;;;;;4986579;28;20464;-64
2023/04/06 08:20:51;;;;;;;;;;;19.70;31.80;;;;;;4995717;28;20065;-62
2023/04/06 08:23:16;;;;;;;;;;;19.30;32.20;;;;;;4996644;28;20539;-62
2023/04/06 08:25:43;;;;;;;;;;;19.30;31.50;;;;;;4996356;28;20504;-62
2023/04/06 08:28:09;;;;;;;;;;;19.10;31.80;;;;;;4996329;28;20052;-62
2023/04/06 08:30:35;;;;;;;;;;;19.30;32.70;;;;;;4993839;28;19979;-62
2023/04/06 08:33:00;;;;;;;;;;;18.70;30.20;;;;;;4995880;28;20326;-62
2023/04/06 08:35:26;;;;;;;;;;;17.60;31.00;;;;;;4995436;28;19979;-61
2023/04/06 08:37:52;;;;;;;;;;;18.10;30.20;;;;;;4993624;28;20036;-63
2023/04/06 08:40:18;;;;;;;;;;;18.00;28.60;;;;;;4987572;28;20365;-62
2023/04/06 08:42:50;;;;;;;;;;;18.10;29.70;;;;;;4982107;28;19983;-62
2023/04/06 08:45:16;;;;;;;;;;;17.00;29.30;;;;;;4985297;28;20022;-63
2023/04/06 08:47:42;;;;;;;;;;;16.20;29.00;;;;;;4986171;28;20030;-63
2023/04/06 08:50:08;;;;;;;;;;;14.70;29.70;;;;;;4988892;28;19994;-61
2023/04/06 08:52:34;;;;;;;;;;;14.80;32.10;;;;;;4980771;28;19990;-65
2023/04/06 08:55:00;;;;;;;;;;;14.50;34.10;;;;;;4989230;28;20022;-62
2023/04/06 08:57:26;;;;;;;;;;;14.70;34.10;;;;;;4995141;28;19986;-64
2023/04/06 08:59:52;;;;;;;;;;;14.90;34.00;;;;;;4993341;28;19987;-65
2023/04/06 09:02:18;;;;;;;;;;;14.60;32.70;;;;;;4993727;28;20065;-62
2023/04/06 09:04:46;;;;;;;;;;;15.00;35.10;;;;;;4990004;28;20002;-64
2023/04/06 09:07:12;;;;;;;;;;;15.60;32.80;;;;;;4984574;28;19991;-64
2023/04/06 09:09:43;;;;;;;;;;;15.90;33.80;;;;;;4977015;28;20010;-62
2023/04/06 09:12:12;;;;;;;;;;;16.00;32.50;;;;;;4982331;28;20022;-62
2023/04/06 09:14:38;;;;;;;;;;;16.20;33.90;;;;;;4992141;28;20005;-63
2023/04/06 09:17:04;;;;;;;;;;;16.30;30.90;;;;;;4993595;28;20061;-62
2023/04/06 09:19:30;;;;;;;;;;;15.80;33.80;;;;;;4993878;28;20069;-64
2023/04/06 09:22:06;;;;;;;;;;;16.10;30.70;;;;;;4996889;28;19983;-64
2023/04/06 09:24:43;;;;;;;;;;;16.20;30.60;;;;;;5001969;28;20036;-63
2023/04/06 09:27:09;;;;;;;;;;;16.10;31.70;;;;;;5001226;28;19986;-65
2023/04/06 09:29:36;;;;;;;;;;;15.90;31.20;;;;;;5001846;28;20006;-63
2023/04/06 09:32:06;;;;;;;;;;;15.60;31.50;;;;;;4998953;28;20026;-64
2023/04/06 09:34:32;;;;;;;;;;;15.90;32.60;;;;;;4995837;28;19983;-63
2023/04/06 09:36:58;;;;;;;;;;;15.70;31.00;;;;;;4993522;28;20073;-64
2023/04/06 09:39:24;;;;;;;;;;;15.10;30.80;;;;;;5005442;28;20053;-65
2023/04/06 09:41:50;;;;;;;;;;;14.80;33.00;;;;;;4989136;28;20101;-64
2023/04/06 09:44:16;;;;;;;;;;;14.80;34.40;;;;;;4982154;28;19987;-62
2023/04/06 09:46:42;;;;;;;;;;;14.90;35.00;;;;;;4984139;28;20006;-63
2023/04/06 09:49:08;;;;;;;;;;;15.20;33.00;;;;;;4984509;28;20105;-65
2023/04/06 09:51:39;;;;;;;;;;;15.80;35.30;;;;;;4988147;28;19987;-62
2023/04/06 09:54:05;;;;;;;;;;;15.90;32.90;;;;;;4983115;28;20013;-66
2023/04/06 09:56:33;;;;;;;;;;;15.80;31.70;;;;;;4989642;28;19990;-64
2023/04/06 09:59:02;;;;;;;;;;;15.60;33.40;;;;;;4985387;28;19989;-63
2023/04/06 10:01:29;;;;;;;;;;;15.70;30.90;;;;;;4988299;28;20009;-62
2023/04/06 10:04:04;;;;;;;;;;;15.70;31.30;;;;;;4983706;28;20397;-65
2023/04/06 10:06:32;;;;;;;;;;;15.90;31.00;;;;;;4991260;28;19982;-61
2023/04/06 10:08:58;;;;;;;;;;;16.00;30.70;;;;;;4992523;28;20342;-62
2023/04/06 10:11:24;;;;;;;;;;;15.20;31.50;;;;;;4986683;28;19987;-63
2023/04/06 10:13:50;;;;;;;;;;;15.20;31.00;;;;;;4986116;28;20044;-62
2023/04/06 10:16:15;;;;;;;;;;;14.80;30.90;;;;;;4984169;28;19990;-63
2023/04/06 10:18:45;;;;;;;;;;;14.20;31.50;;;;;;4987866;28;19983;-61
2023/04/06 10:21:15;;;;;;;;;;;14.50;32.20;;;;;;4988281;28;19983;-63
2023/04/06 10:23:47;;;;;;;;;;;14.80;31.00;;;;;;4993688;28;19986;-63
2023/04/06 10:26:13;;;;;;;;;;;14.80;32.50;;;;;;4991539;28;20334;-62
2023/04/06 10:28:41;;;;;;;;;;;15.20;30.70;;;;;;4989654;28;20487;-66
2023/04/06 10:31:06;;;;;;;;;;;15.10;31.70;;;;;;4990456;28;20434;-62
2023/04/06 10:33:35;;;;;;;;;;;14.60;33.70;;;;;;4983822;28;19989;-64
2023/04/06 10:36:13;;;;;;;;;;;14.20;33.60;;;;;;4980051;28;19990;-64
2023/04/06 10:38:39;;;;;;;;;;;14.30;34.20;;;;;;4989453;28;20440;-62
2023/04/06 10:41:09;;;;;;;;;;;14.30;33.10;;;;;;4989571;28;19982;-63
2023/04/06 10:43:36;;;;;;;;;;;14.80;33.50;;;;;;4981297;28;20029;-63
2023/04/06 10:46:02;;;;;;;;;;;15.30;33.70;;;;;;4985003;28;20463;-63
2023/04/06 10:48:41;;;;;;;;;;;15.60;31.80;;;;;;4987549;28;20006;-62
2023/04/06 10:51:13;;;;;;;;;;;15.30;33.20;;;;;;4991174;28;20515;-61
2023/04/06 10:53:41;;;;;;;;;;;14.70;34.60;;;;;;4982550;28;20112;-63
2023/04/06 10:56:10;;;;;;;;;;;14.80;33.00;;;;;;4975597;28;20026;-60
2023/04/06 10:58:36;;;;;;;;;;;15.60;34.40;;;;;;4977397;28;20342;-62
2023/04/06 11:01:02;;;;;;;;;;;15.80;33.10;;;;;;4989981;28;19987;-61
2023/04/06 11:03:27;;;;;;;;;;;16.20;33.30;;;;;;4993434;28;20352;-61
2023/04/06 11:05:53;;;;;;;;;;;16.70;30.40;;;;;;4984499;28;19999;-62
2023/04/06 11:08:25;;;;;;;;;;;16.50;31.60;;;;;;4980807;28;20013;-62
2023/04/06 11:10:51;;;;;;;;;;;16.70;35.30;;;;;;4986326;28;19990;-63
2023/04/06 11:13:17;;;;;;;;;;;16.60;33.10;;;;;;4989185;28;20569;-61
2023/04/06 11:15:42;;;;;;;;;;;16.70;34.10;;;;;;4988446;28;19987;-62
2023/04/06 11:18:23;;;;;;;;;;;16.50;31.40;;;;;;4991013;28;19993;-64
2023/04/06 11:20:49;;;;;;;;;;;16.10;31.50;;;;;;4991077;28;20061;-61
2023/04/06 11:23:22;;;;;;;;;;;15.50;32.20;;;;;;4991121;28;20078;-61
2023/04/06 11:25:53;;;;;;;;;;;15.70;33.60;;;;;;4990693;28;20069;-62
2023/04/06 11:28:19;;;;;;;;;;;16.50;32.10;;;;;;4991399;28;20042;-62
2023/04/06 11:30:45;;;;;;;;;;;16.70;30.80;;;;;;4995146;28;19978;-62
2023/04/06 11:33:10;;;;;;;;;;;16.30;31.50;;;;;;4995493;28;19990;-61
2023/04/06 11:35:37;;;;;;;;;;;16.10;30.60;;;;;;4993333;28;19989;-62
2023/04/06 11:38:03;;;;;;;;;;;16.10;33.00;;;;;;4994284;28;20029;-62
2023/04/06 11:40:30;;;;;;;;;;;15.80;32.40;;;;;;4996858;28;19983;-61
2023/04/06 11:42:55;;;;;;;;;;;15.60;32.40;;;;;;4996465;28;20487;-62
2023/04/06 11:45:21;;;;;;;;;;;15.20;32.40;;;;;;4994886;28;19986;-62
2023/04/06 11:47:55;;;;;;;;;;;14.80;32.50;;;;;;4995665;28;19987;-61
2023/04/06 11:50:20;;;;;;;;;;;14.90;34.30;;;;;;4995135;28;19986;-60
2023/04/06 11:52:57;;;;;;;;;;;15.50;36.90;;;;;;4993823;28;20334;-61
2023/04/06 11:55:22;;;;;;;;;;;15.50;33.70;;;;;;4993780;28;19979;-60
2023/04/06 11:57:52;;;;;;;;;;;15.30;34.30;;;;;;4992144;28;20002;-63
2023/04/06 12:00:18;;;;;;;;;;;15.20;35.20;;;;;;4995132;28;19991;-63
2023/04/06 12:02:47;;;;;;;;;;;15.70;35.50;;;;;;4996506;28;20361;-61
2023/04/06 12:05:13;;;;;;;;;;;16.40;34.70;;;;;;4994746;28;20373;-61
2023/04/06 12:07:38;;;;;;;;;;;16.50;33.80;;;;;;4996157;28;19994;-61
2023/04/06 12:10:04;;;;;;;;;;;16.70;31.30;;;;;;4994647;28;20045;-62
2023/04/06 12:12:30;;;;;;;;;;;16.90;30.80;;;;;;4995730;28;20017;-61
2023/04/06 12:14:56;;;;;;;;;;;17.20;33.80;;;;;;4987123;28;19983;-62
2023/04/06 12:17:23;;;;;;;;;;;17.50;30.20;;;;;;4990433;28;19995;-62
2023/04/06 12:19:49;;;;;;;;;;;17.30;29.60;;;;;;4991479;28;20005;-61
2023/04/06 12:22:14;;;;;;;;;;;17.40;32.40;;;;;;4985706;28;19987;-61
2023/04/06 12:24:40;;;;;;;;;;;17.80;32.90;;;;;;4989284;28;20373;-60
2023/04/06 12:27:06;;;;;;;;;;;18.10;30.40;;;;;;4989323;28;19983;-63
2023/04/06 12:29:32;;;;;;;;;;;18.40;30.10;;;;;;4983728;28;20003;-62
2023/04/06 12:31:57;;;;;;;;;;;18.20;31.50;;;;;;4988963;28;19987;-62
2023/04/06 12:34:23;;;;;;;;;;;17.10;29.00;;;;;;4987416;28;19983;-62
2023/04/06 12:36:48;;;;;;;;;;;17.30;33.00;;;;;;4988579;28;19998;-62
2023/04/06 12:39:14;;;;;;;;;;;17.60;30.90;;;;;;4988977;28;19986;-62
2023/04/06 12:41:42;;;;;;;;;;;17.50;29.40;;;;;;4991831;28;20424;-61
2023/04/06 12:44:08;;;;;;;;;;;17.50;29.60;;;;;;4987525;28;19983;-62
2023/04/06 12:46:33;;;;;;;;;;;17.20;30.00;;;;;;4984626;28;20437;-60
2023/04/06 12:48:59;;;;;;;;;;;16.90;28.90;;;;;;4986082;28;20003;-62
2023/04/06 12:51:27;;;;;;;;;;;16.80;29.80;;;;;;4988345;28;20077;-61
2023/04/06 12:53:53;;;;;;;;;;;17.10;29.70;;;;;;4986708;28;19989;-61
2023/04/06 12:56:18;;;;;;;;;;;17.70;29.30;;;;;;4990612;28;19990;-61
2023/04/06 12:58:45;;;;;;;;;;;17.60;29.80;;;;;;4995454;28;20090;-62
2023/04/06 13:01:12;;;;;;;;;;;17.70;29.90;;;;;;4995479;28;19983;-63
2023/04/06 13:03:38;;;;;;;;;;;17.80;30.00;;;;;;4994210;28;20437;-61
2023/04/06 13:06:04;;;;;;;;;;;17.80;30.20;;;;;;4994680;28;20077;-61
2023/04/06 13:08:30;;;;;;;;;;;17.60;31.20;;;;;;4995217;28;20533;-60
2023/04/06 13:10:56;;;;;;;;;;;18.00;33.40;;;;;;4994387;28;19982;-63
2023/04/06 13:13:24;;;;;;;;;;;18.10;30.80;;;;;;4993688;28;20022;-62
2023/04/06 13:15:50;;;;;;;;;;;18.10;33.40;;;;;;4994410;28;20465;-61
2023/04/06 13:18:16;;;;;;;;;;;18.30;32.40;;;;;;4995003;28;19982;-63
2023/04/06 13:20:42;;;;;;;;;;;18.30;31.50;;;;;;4995141;28;19983;-63
2023/04/06 13:23:08;;;;;;;;;;;18.30;30.10;;;;;;4994784;28;19983;-62
2023/04/06 13:25:34;;;;;;;;;;;18.30;30.30;;;;;;4994071;28;20081;-60
2023/04/06 13:27:59;;;;;;;;;;;18.00;29.10;;;;;;4994570;28;19983;-62
2023/04/06 13:30:25;;;;;;;;;;;17.50;31.00;;;;;;4994990;28;20069;-62
2023/04/06 13:32:51;;;;;;;;;;;17.60;31.50;;;;;;4995416;28;19983;-60
2023/04/06 13:35:17;;;;;;;;;;;17.60;30.40;;;;;;4995733;28;20037;-62
2023/04/06 13:37:43;;;;;;;;;;;18.00;31.30;;;;;;4995730;28;20342;-62
2023/04/06 13:40:09;;;;;;;;;;;18.40;32.70;;;;;;4995331;28;19983;-61
2023/04/06 13:42:41;;;;;;;;;;;18.80;30.50;;;;;;4995829;28;19985;-63
2023/04/06 13:45:07;;;;;;;;;;;18.80;32.20;;;;;;4995614;28;20029;-63
2023/04/06 13:47:33;;;;;;;;;;;18.60;30.00;;;;;;4995840;28;19987;-61
2023/04/06 13:49:58;;;;;;;;;;;18.50;31.60;;;;;;4995148;28;20452;-61
2023/04/06 13:52:24;;;;;;;;;;;18.70;32.80;;;;;;4995496;28;19979;-62
2023/04/06 13:54:50;;;;;;;;;;;18.80;30.80;;;;;;4995149;28;19982;-63
2023/04/06 13:57:16;;;;;;;;;;;19.10;30.10;;;;;;4995288;28;20102;-63
2023/04/06 13:59:41;;;;;;;;;;;19.40;31.50;;;;;;4995379;28;19979;-63
2023/04/06 14:02:08;;;;;;;;;;;19.70;30.00;;;;;;4995145;28;19979;-62
2023/04/06 14:04:34;;;;;;;;;;;19.40;29.00;;;;;;4995142;28;20071;-62
2023/04/06 14:07:00;;;;;;;;;;;18.70;30.00;;;;;;4995050;28;20079;-63
2023/04/06 14:09:26;;;;;;;;;;;18.40;29.70;;;;;;4995053;28;20454;-61
2023/04/06 14:11:52;;;;;;;;;;;18.30;29.60;;;;;;4995044;28;20033;-61
2023/04/06 14:14:17;;;;;;;;;;;18.00;29.00;;;;;;4995336;28;20033;-61
2023/04/06 14:16:46;;;;;;;;;;;18.40;30.50;;;;;;4994919;28;20393;-63
2023/04/06 14:19:17;;;;;;;;;;;18.60;30.90;;;;;;4995203;28;20017;-63